Time;durP1;ratioP1;P1;durP2;ratioP2;P2;SDS_P1;SDS_P2;PMS_P1;PMS_P2;Temp;Humidity;BMP_temperature;BMP_pressure;BME280_temperature;BME280_humidity;BME280_pressure;Samples;Min_cycle;Max_cycle;Signal;HPM_P1;HPM_P2
2022/03/15 00:00:41;;;;;;;38.50;26.10;;;3.50;74.90;;;;;;5000092;28;20392;-87
2022/03/15 00:03:07;;;;;;;41.20;24.60;;;3.50;75.30;;;;;;4994133;28;20199;-93
2022/03/15 00:05:32;;;;;;;38.10;25.85;;;3.50;75.60;;;;;;4995358;28;20275;-93
2022/03/15 00:07:59;;;;;;;40.33;25.33;;;3.50;75.50;;;;;;4997735;28;20262;-88
2022/03/15 00:10:25;;;;;;;40.53;27.95;;;3.50;75.60;;;;;;4995725;28;20184;-94
2022/03/15 00:12:51;;;;;;;38.47;25.87;;;3.40;75.80;;;;;;4995824;28;20567;-94
2022/03/15 00:15:17;;;;;;;34.90;25.85;;;3.40;75.60;;;;;;5005920;28;20215;-87
2022/03/15 00:17:44;;;;;;;35.90;25.03;;;3.40;75.70;;;;;;4994047;28;20242;-94
2022/03/15 00:20:14;;;;;;;41.85;25.27;;;3.40;76.50;;;;;;4998353;28;20211;-87
2022/03/15 00:22:41;;;;;;;35.85;24.75;;;3.30;76.40;;;;;;4995119;28;20188;-94
2022/03/15 00:25:10;;;;;;;42.25;26.40;;;3.30;76.40;;;;;;4994991;28;20172;-87
2022/03/15 00:27:36;;;;;;;44.30;27.55;;;3.30;76.40;;;;;;4993568;28;20330;-86
2022/03/15 00:30:05;;;;;;;55.60;36.17;;;3.20;76.40;;;;;;4994093;28;20707;-94
2022/03/15 00:32:31;;;;;;;53.22;34.88;;;3.20;76.40;;;;;;4993447;28;20220;-86
2022/03/15 00:34:57;;;;;;;43.15;27.45;;;3.20;76.90;;;;;;4993693;28;20207;-94
2022/03/15 00:37:23;;;;;;;39.80;26.20;;;3.10;77.10;;;;;;4995203;28;20191;-92
2022/03/15 00:39:50;;;;;;;41.05;28.45;;;3.10;76.80;;;;;;4995810;28;20384;-94
2022/03/15 00:42:16;;;;;;;47.38;28.45;;;3.10;77.00;;;;;;5010421;28;20214;-92
2022/03/15 00:44:42;;;;;;;43.00;27.90;;;3.10;76.80;;;;;;4993746;28;20186;-93
2022/03/15 00:47:08;;;;;;;38.20;26.55;;;3.00;76.80;;;;;;4993689;28;20637;-93
2022/03/15 00:49:35;;;;;;;38.93;27.03;;;3.00;77.50;;;;;;4995420;28;20172;-88
2022/03/15 00:52:01;;;;;;;44.65;27.60;;;3.10;77.50;;;;;;4993942;28;20484;-89
2022/03/15 00:54:27;;;;;;;47.97;30.97;;;3.00;77.30;;;;;;5011128;28;20232;-86
2022/03/15 00:56:53;;;;;;;42.97;28.35;;;3.00;77.50;;;;;;4997693;28;20238;-94
2022/03/15 00:59:19;;;;;;;42.58;28.65;;;3.00;77.80;;;;;;5000287;28;20209;-87
2022/03/15 01:01:46;;;;;;;40.37;29.60;;;3.00;77.30;;;;;;4999082;28;20190;-87
2022/03/15 01:04:12;;;;;;;43.17;32.20;;;3.00;77.60;;;;;;4997995;28;20421;-94
2022/03/15 01:06:38;;;;;;;45.30;29.58;;;3.00;77.50;;;;;;4998966;28;20724;-94
2022/03/15 01:09:06;;;;;;;49.78;32.60;;;3.00;77.90;;;;;;5000251;28;20227;-86
2022/03/15 01:11:32;;;;;;;47.85;32.03;;;3.00;77.50;;;;;;5003054;28;20183;-93
2022/03/15 01:13:57;;;;;;;43.17;27.33;;;3.00;77.30;;;;;;5014518;28;20282;-92
2022/03/15 01:16:24;;;;;;;35.03;24.87;;;2.90;77.40;;;;;;5002443;28;20396;-92
2022/03/15 01:18:50;;;;;;;44.78;25.45;;;2.90;77.80;;;;;;4998020;28;20188;-93
2022/03/15 01:21:16;;;;;;;43.67;27.37;;;2.90;78.00;;;;;;5000523;28;20184;-94
2022/03/15 01:23:42;;;;;;;39.17;26.70;;;2.80;78.00;;;;;;4997235;28;20481;-94
2022/03/15 01:26:09;;;;;;;40.90;26.33;;;2.80;78.10;;;;;;4997039;28;20349;-87
2022/03/15 01:28:35;;;;;;;45.30;27.30;;;2.70;78.10;;;;;;4997683;28;20287;-94
2022/03/15 01:31:01;;;;;;;41.47;26.80;;;2.70;78.50;;;;;;4996820;28;20680;-87
2022/03/15 01:33:27;;;;;;;47.90;28.70;;;2.60;78.30;;;;;;4996456;28;20494;-86
2022/03/15 01:35:54;;;;;;;46.67;28.77;;;2.60;78.20;;;;;;5013175;28;20220;-94
2022/03/15 01:38:20;;;;;;;43.13;27.88;;;2.50;78.80;;;;;;4996809;28;20200;-94
2022/03/15 01:40:46;;;;;;;42.63;27.60;;;2.50;79.10;;;;;;4999187;28;20194;-94
2022/03/15 01:43:12;;;;;;;41.38;26.58;;;2.50;79.30;;;;;;4997223;28;20210;-94
2022/03/15 01:45:40;;;;;;;44.67;25.43;;;2.50;79.00;;;;;;4997557;28;20323;-88
2022/03/15 01:48:09;;;;;;;41.88;25.10;;;2.50;79.00;;;;;;4996699;28;20788;-94
2022/03/15 01:50:36;;;;;;;39.42;28.08;;;2.50;79.30;;;;;;4996752;28;20187;-88
2022/03/15 01:53:03;;;;;;;46.15;29.00;;;2.50;79.70;;;;;;4997064;28;20612;-93
2022/03/15 01:55:28;;;;;;;42.13;28.27;;;2.50;79.90;;;;;;4997353;28;20246;-94
2022/03/15 01:57:55;;;;;;;47.10;30.40;;;2.50;79.40;;;;;;4996805;28;20682;-87
2022/03/15 02:00:21;;;;;;;42.00;31.70;;;2.50;79.40;;;;;;4997339;28;20267;-87
2022/03/15 02:02:47;;;;;;;45.03;31.07;;;2.50;79.00;;;;;;4996928;28;20219;-94
2022/03/15 02:05:13;;;;;;;45.53;30.00;;;2.50;79.90;;;;;;4997978;28;20389;-94
2022/03/15 02:07:39;;;;;;;50.97;31.40;;;2.50;79.50;;;;;;4995135;28;20208;-93
2022/03/15 02:10:07;;;;;;;39.77;27.00;;;2.50;79.40;;;;;;4997613;28;20168;-87
2022/03/15 02:12:38;;;;;;;40.83;25.45;;;2.50;79.30;;;;;;4997746;28;20400;-94
2022/03/15 02:15:06;;;;;;;40.22;24.85;;;2.50;79.30;;;;;;4995976;28;20215;-87
2022/03/15 02:17:32;;;;;;;40.65;28.35;;;2.50;79.00;;;;;;4996362;28;20196;-93
2022/03/15 02:19:58;;;;;;;40.83;25.30;;;2.50;79.10;;;;;;4999879;28;20654;-95
2022/03/15 02:22:25;;;;;;;37.73;23.83;;;2.50;79.20;;;;;;4995592;28;20220;-87
2022/03/15 02:24:51;;;;;;;46.17;24.92;;;2.50;79.40;;;;;;4997409;28;20380;-94
2022/03/15 02:27:20;;;;;;;47.90;26.42;;;2.40;79.00;;;;;;4996893;28;20715;-86
2022/03/15 02:29:45;;;;;;;45.45;28.65;;;2.50;78.90;;;;;;4997944;28;20183;-94
2022/03/15 02:32:11;;;;;;;38.30;26.67;;;2.50;78.90;;;;;;4999004;28;20215;-90
2022/03/15 02:34:37;;;;;;;43.37;26.97;;;2.40;78.90;;;;;;4997876;28;20677;-87
2022/03/15 02:37:03;;;;;;;43.37;26.40;;;2.40;79.00;;;;;;4999931;28;20245;-88
2022/03/15 02:39:29;;;;;;;38.35;23.60;;;2.40;79.30;;;;;;4997229;28;20194;-92
2022/03/15 02:41:54;;;;;;;43.63;23.63;;;2.40;79.70;;;;;;5017506;28;20195;-93
2022/03/15 02:44:23;;;;;;;42.80;25.07;;;2.50;79.60;;;;;;5017977;28;20247;-87
2022/03/15 02:46:51;;;;;;;38.92;25.40;;;2.50;79.90;;;;;;5004344;28;20187;-86
2022/03/15 02:49:17;;;;;;;45.60;25.05;;;2.50;80.30;;;;;;4996195;28;20172;-87
2022/03/15 02:51:43;;;;;;;35.67;23.63;;;2.40;80.10;;;;;;4996432;28;20184;-94
2022/03/15 02:54:11;;;;;;;35.27;24.97;;;2.40;79.80;;;;;;4995071;28;20230;-93
2022/03/15 02:56:44;;;;;;;41.30;26.55;;;2.40;80.30;;;;;;5011985;28;20408;-87
2022/03/15 02:59:14;;;;;;;43.63;28.35;;;2.40;80.20;;;;;;4998183;28;20163;-86
2022/03/15 03:01:40;;;;;;;38.33;24.33;;;2.40;80.30;;;;;;4996508;28;20270;-94
2022/03/15 03:04:06;;;;;;;38.22;25.23;;;2.40;80.60;;;;;;4994831;28;20179;-94
2022/03/15 03:06:32;;;;;;;35.53;24.13;;;2.40;80.60;;;;;;4995312;28;20188;-94
2022/03/15 03:08:58;;;;;;;42.10;25.67;;;2.40;80.80;;;;;;4995792;28;20517;-95
2022/03/15 03:11:24;;;;;;;46.85;25.45;;;2.30;80.70;;;;;;4996325;28;20686;-88
2022/03/15 03:13:52;;;;;;;43.97;29.53;;;2.30;80.80;;;;;;4995093;28;20295;-95
2022/03/15 03:16:18;;;;;;;43.03;27.63;;;2.30;81.40;;;;;;5011523;28;20192;-94
2022/03/15 03:18:44;;;;;;;63.05;38.00;;;2.30;81.00;;;;;;4995088;28;20203;-87
2022/03/15 03:21:11;;;;;;;49.90;29.50;;;2.30;80.90;;;;;;4996170;28;20256;-94
2022/03/15 03:23:38;;;;;;;44.80;30.33;;;2.30;81.10;;;;;;5011426;28;20409;-87
2022/03/15 03:26:04;;;;;;;44.20;29.15;;;2.30;81.40;;;;;;5011225;28;20198;-87
2022/03/15 03:28:36;;;;;;;41.45;27.50;;;2.30;81.60;;;;;;4996127;28;20210;-87
2022/03/15 03:31:04;;;;;;;44.85;27.88;;;2.20;81.30;;;;;;4996057;28;20188;-92
2022/03/15 03:33:30;;;;;;;48.10;27.95;;;2.20;81.40;;;;;;4996017;28;20242;-88
2022/03/15 03:35:57;;;;;;;41.55;26.85;;;2.20;81.80;;;;;;4996754;28;20223;-87
2022/03/15 03:38:23;;;;;;;44.67;25.02;;;2.20;81.50;;;;;;4994797;28;20196;-88
2022/03/15 03:40:48;;;;;;;42.25;27.40;;;2.20;81.90;;;;;;4996439;28;20237;-94
2022/03/15 03:43:14;;;;;;;36.13;25.07;;;2.20;82.10;;;;;;4995839;28;20207;-87
2022/03/15 03:45:41;;;;;;;42.07;26.73;;;2.20;82.00;;;;;;4994779;28;20407;-87
2022/03/15 03:48:07;;;;;;;42.88;27.08;;;2.10;82.40;;;;;;4995435;28;20662;-94
2022/03/15 03:50:35;;;;;;;43.47;27.13;;;2.10;82.50;;;;;;4999602;28;20223;-93
2022/03/15 03:53:01;;;;;;;41.50;26.58;;;2.10;82.60;;;;;;5011304;28;20183;-86
2022/03/15 03:55:27;;;;;;;41.97;26.23;;;2.00;82.50;;;;;;5005251;28;20222;-87
2022/03/15 03:57:53;;;;;;;43.57;26.10;;;2.00;82.60;;;;;;4997590;28;20203;-88
2022/03/15 04:00:18;;;;;;;39.17;26.63;;;2.00;82.60;;;;;;4993835;28;20251;-94
2022/03/15 04:02:44;;;;;;;45.77;26.17;;;2.00;82.60;;;;;;4993928;28;20199;-87
2022/03/15 04:05:10;;;;;;;41.57;26.60;;;2.00;82.60;;;;;;4995024;28;20376;-94
2022/03/15 04:07:39;;;;;;;46.77;27.77;;;2.00;82.50;;;;;;4994549;28;20203;-94
2022/03/15 04:10:06;;;;;;;41.03;25.52;;;2.00;82.60;;;;;;4994054;28;20421;-89
2022/03/15 04:12:33;;;;;;;43.60;25.85;;;2.00;82.70;;;;;;4995052;28;20621;-94
2022/03/15 04:14:59;;;;;;;44.20;26.83;;;2.00;82.90;;;;;;4997852;28;20314;-86
2022/03/15 04:17:26;;;;;;;44.08;26.38;;;1.90;82.80;;;;;;5001378;28;20199;-87
2022/03/15 04:19:52;;;;;;;39.40;24.83;;;2.00;83.10;;;;;;4997842;28;20676;-86
2022/03/15 04:22:18;;;;;;;42.63;25.17;;;1.90;83.40;;;;;;4999035;28;20207;-86
2022/03/15 04:24:44;;;;;;;48.13;27.43;;;1.90;83.40;;;;;;4997124;28;20180;-87
2022/03/15 04:27:09;;;;;;;37.77;25.33;;;1.90;84.10;;;;;;4997240;28;20446;-92
2022/03/15 04:29:35;;;;;;;39.90;25.90;;;1.90;83.50;;;;;;4998392;28;20168;-93
2022/03/15 04:32:01;;;;;;;41.60;26.60;;;1.90;83.80;;;;;;4999607;28;20427;-89
2022/03/15 04:34:28;;;;;;;40.70;27.33;;;1.80;83.70;;;;;;4999492;28;20297;-93
2022/03/15 04:36:54;;;;;;;56.92;32.22;;;1.80;83.90;;;;;;5000397;28;20411;-94
2022/03/15 04:39:20;;;;;;;165.13;63.60;;;1.80;84.00;;;;;;4999371;28;20242;-92
2022/03/15 04:41:46;;;;;;;126.60;53.80;;;1.80;83.90;;;;;;4999286;28;20211;-95
2022/03/15 04:44:12;;;;;;;138.02;55.55;;;1.80;83.80;;;;;;5016576;28;20645;-87
2022/03/15 04:46:38;;;;;;;75.80;37.63;;;1.80;83.80;;;;;;5003893;28;20187;-88
2022/03/15 04:49:04;;;;;;;71.90;41.60;;;1.80;83.90;;;;;;5011327;28;20190;-92
2022/03/15 04:51:30;;;;;;;85.00;47.88;;;1.80;83.90;;;;;;5013164;28;20396;-94
2022/03/15 04:53:56;;;;;;;84.50;47.20;;;1.80;84.00;;;;;;5013925;28;20195;-86
2022/03/15 04:56:22;;;;;;;88.10;46.03;;;1.70;84.10;;;;;;4998161;28;20433;-86
2022/03/15 04:58:47;;;;;;;69.53;41.07;;;1.70;84.40;;;;;;4999326;28;20196;-88
2022/03/15 05:01:13;;;;;;;67.43;37.57;;;1.70;84.50;;;;;;4999855;28;20182;-94
2022/03/15 05:03:39;;;;;;;53.67;31.83;;;1.70;84.50;;;;;;4999288;28;20258;-86
2022/03/15 05:06:05;;;;;;;47.87;29.47;;;1.70;84.50;;;;;;5013526;28;20271;-94
2022/03/15 05:08:31;;;;;;;49.87;27.37;;;1.70;84.60;;;;;;4998285;28;20247;-94
2022/03/15 05:11:06;;;;;;;44.93;29.10;;;1.60;84.60;;;;;;4997236;28;20441;-87
2022/03/15 05:13:52;;;;;;;49.15;28.15;;;1.60;85.60;;;;;;4997458;28;20419;-94
2022/03/15 05:16:21;;;;;;;57.53;33.35;;;1.60;85.10;;;;;;4998956;28;20295;-94
2022/03/15 05:18:51;;;;;;;42.58;25.58;;;1.60;85.40;;;;;;5000549;28;20190;-93
2022/03/15 05:21:18;;;;;;;45.97;25.50;;;1.60;85.40;;;;;;4999933;28;20249;-87
2022/03/15 05:23:45;;;;;;;52.15;29.65;;;1.60;85.40;;;;;;4997549;28;20204;-87
2022/03/15 05:26:12;;;;;;;42.50;27.17;;;1.60;85.70;;;;;;4998709;28;20184;-87
2022/03/15 05:28:37;;;;;;;47.25;28.35;;;1.60;85.90;;;;;;4998964;28;20564;-93
2022/03/15 05:31:03;;;;;;;57.23;33.20;;;1.60;86.20;;;;;;4999466;28;20184;-94
2022/03/15 05:33:29;;;;;;;65.73;36.63;;;1.60;86.30;;;;;;4999410;28;20404;-94
2022/03/15 05:35:55;;;;;;;50.80;33.17;;;1.70;86.40;;;;;;4999438;28;20226;-87
2022/03/15 05:38:21;;;;;;;63.30;36.88;;;1.70;86.60;;;;;;4999083;28;20596;-88
2022/03/15 05:40:47;;;;;;;65.27;37.27;;;1.70;87.10;;;;;;4998451;28;20242;-86
2022/03/15 05:43:13;;;;;;;70.70;38.23;;;1.70;87.30;;;;;;4999613;28;20462;-87
2022/03/15 05:45:40;;;;;;;78.50;39.00;;;1.70;87.40;;;;;;5007671;28;20634;-92
2022/03/15 05:48:06;;;;;;;46.30;29.83;;;1.80;87.00;;;;;;5010224;28;20287;-87
2022/03/15 05:50:32;;;;;;;93.47;45.97;;;1.80;86.40;;;;;;4996105;28;20187;-93
2022/03/15 05:53:03;;;;;;;141.68;57.40;;;1.90;86.00;;;;;;4996418;28;20204;-94
2022/03/15 05:55:30;;;;;;;104.70;49.90;;;1.90;86.00;;;;;;4997223;28;20223;-87
2022/03/15 05:57:56;;;;;;;48.40;30.60;;;1.90;86.00;;;;;;4996217;28;20707;-94
2022/03/15 06:00:22;;;;;;;50.70;28.30;;;1.90;86.20;;;;;;4996667;28;20286;-87
2022/03/15 06:02:48;;;;;;;93.25;45.03;;;2.00;86.10;;;;;;4996748;28;20572;-94
2022/03/15 06:05:14;;;;;;;97.93;45.30;;;2.10;85.90;;;;;;4997811;28;20188;-94
2022/03/15 06:07:48;;;;;;;53.75;32.85;;;2.10;85.90;;;;;;4997295;28;20453;-88
2022/03/15 06:10:15;;;;;;;49.90;32.05;;;2.20;86.10;;;;;;4997152;28;20183;-94
2022/03/15 06:12:42;;;;;;;45.30;29.88;;;2.20;86.10;;;;;;4996951;28;20687;-88
2022/03/15 06:15:09;;;;;;;40.15;26.92;;;2.30;86.30;;;;;;4997662;28;20407;-87
2022/03/15 06:17:44;;;;;;;44.03;29.30;;;2.30;86.30;;;;;;4998165;28;20326;-87
2022/03/15 06:20:12;;;;;;;40.30;26.73;;;2.40;86.50;;;;;;4996797;28;20241;-87
2022/03/15 06:22:38;;;;;;;42.00;27.15;;;2.40;86.50;;;;;;4996762;28;20199;-87
2022/03/15 06:25:04;;;;;;;45.55;27.55;;;2.40;86.80;;;;;;5000008;28;20239;-94
2022/03/15 06:27:30;;;;;;;37.67;28.10;;;2.50;86.80;;;;;;4997028;28;20200;-87
2022/03/15 06:29:57;;;;;;;48.20;28.90;;;2.60;86.50;;;;;;4995985;28;20711;-94
2022/03/15 06:32:23;;;;;;;48.45;31.17;;;2.70;86.50;;;;;;4996982;28;20208;-93
2022/03/15 06:34:48;;;;;;;56.73;30.70;;;2.80;87.10;;;;;;4996501;28;20255;-92
2022/03/15 06:37:14;;;;;;;39.78;27.90;;;2.80;87.50;;;;;;4998560;28;20629;-87
2022/03/15 06:39:40;;;;;;;43.83;28.83;;;2.90;87.40;;;;;;4996807;28;20187;-93
2022/03/15 06:42:09;;;;;;;41.03;27.20;;;3.00;87.30;;;;;;4996777;28;20945;-94
2022/03/15 06:44:36;;;;;;;43.55;27.10;;;3.10;87.00;;;;;;5012091;28;20222;-86
2022/03/15 06:47:02;;;;;;;44.70;29.05;;;3.20;86.90;;;;;;5004086;28;20224;-94
2022/03/15 06:49:28;;;;;;;40.25;26.95;;;3.30;87.00;;;;;;4997995;28;20258;-87
2022/03/15 06:51:53;;;;;;;40.90;27.37;;;3.40;87.00;;;;;;5012041;28;20307;-87
2022/03/15 06:54:19;;;;;;;33.03;25.50;;;3.50;87.10;;;;;;4995031;28;20342;-92
2022/03/15 06:56:45;;;;;;;38.53;26.13;;;3.60;87.30;;;;;;4995305;28;20180;-94
2022/03/15 06:59:11;;;;;;;31.90;24.17;;;3.70;87.30;;;;;;4995455;28;20203;-90
2022/03/15 07:01:36;;;;;;;37.50;25.23;;;3.90;87.00;;;;;;4998244;28;20219;-87
2022/03/15 07:04:02;;;;;;;36.17;25.70;;;4.10;86.50;;;;;;4997225;28;20191;-87
2022/03/15 07:06:28;;;;;;;42.33;25.70;;;4.20;86.30;;;;;;5013349;28;20203;-86
2022/03/15 07:08:54;;;;;;;54.60;27.00;;;4.40;86.50;;;;;;4997440;28;20269;-87
2022/03/15 07:11:19;;;;;;;39.43;24.33;;;4.50;85.20;;;;;;4997680;28;20218;-93
2022/03/15 07:13:45;;;;;;;37.10;25.30;;;4.70;84.70;;;;;;5006261;28;20408;-88
2022/03/15 07:16:10;;;;;;;46.57;26.50;;;4.80;84.40;;;;;;5006653;28;20617;-87
2022/03/15 07:18:36;;;;;;;40.80;26.80;;;5.00;84.30;;;;;;5000158;28;20204;-93
2022/03/15 07:21:02;;;;;;;36.97;25.10;;;5.10;84.60;;;;;;5001360;28;20168;-91
2022/03/15 07:23:28;;;;;;;41.80;24.33;;;5.30;83.70;;;;;;4997331;28;20282;-94
2022/03/15 07:25:53;;;;;;;39.00;23.83;;;5.50;83.60;;;;;;5014749;28;20279;-93
2022/03/15 07:28:19;;;;;;;32.40;23.97;;;5.60;83.30;;;;;;5013236;28;20567;-92
2022/03/15 07:30:45;;;;;;;31.50;21.80;;;5.80;83.10;;;;;;5025577;28;20418;-88
2022/03/15 07:33:11;;;;;;;33.22;21.85;;;6.00;82.10;;;;;;5006262;28;20517;-94
2022/03/15 07:35:37;;;;;;;31.67;14.90;;;6.20;81.80;;;;;;5009833;28;20223;-92
2022/03/15 07:38:03;;;;;;;30.90;20.73;;;6.30;81.20;;;;;;5007047;28;20201;-94
2022/03/15 07:40:31;;;;;;;35.60;22.93;;;6.50;80.60;;;;;;4996312;28;20401;-94
2022/03/15 07:42:57;;;;;;;33.65;22.00;;;6.60;80.90;;;;;;4984249;28;20220;-94
2022/03/15 07:45:23;;;;;;;34.67;22.97;;;6.80;80.50;;;;;;4984847;28;20184;-87
2022/03/15 07:47:49;;;;;;;43.97;26.30;;;6.90;80.80;;;;;;4983202;28;20450;-95
2022/03/15 07:50:15;;;;;;;35.23;25.10;;;7.10;80.70;;;;;;4974796;28;20215;-94
2022/03/15 07:52:41;;;;;;;33.97;23.05;;;7.40;80.10;;;;;;4976151;28;20809;-93
2022/03/15 07:55:07;;;;;;;31.03;23.40;;;7.60;79.90;;;;;;4974832;28;20208;-87
2022/03/15 07:57:33;;;;;;;34.95;24.73;;;7.80;79.00;;;;;;4974273;28;20207;-87
2022/03/15 07:59:58;;;;;;;31.57;22.53;;;8.00;78.30;;;;;;4974680;28;20180;-87
2022/03/15 08:02:25;;;;;;;28.57;22.03;;;8.20;77.60;;;;;;4975334;28;20196;-88
2022/03/15 08:04:53;;;;;;;35.15;24.13;;;8.30;76.80;;;;;;4973926;28;20173;-94
2022/03/15 08:07:21;;;;;;;28.13;21.42;;;8.50;77.00;;;;;;4975976;28;20200;-88
2022/03/15 08:09:47;;;;;;;32.33;21.67;;;8.70;76.30;;;;;;4978302;28;20255;-87
2022/03/15 08:12:13;;;;;;;36.70;23.47;;;8.90;75.80;;;;;;4975965;28;20200;-88
2022/03/15 08:14:39;;;;;;;29.23;24.03;;;9.10;75.40;;;;;;4974966;28;20560;-94
2022/03/15 08:17:05;;;;;;;29.10;20.87;;;9.40;75.10;;;;;;4976179;28;20311;-95
2022/03/15 08:19:30;;;;;;;29.50;22.77;;;9.70;73.90;;;;;;4977084;28;20173;-94
2022/03/15 08:22:01;;;;;;;29.00;21.23;;;10.10;72.80;;;;;;4976375;28;20200;-94
2022/03/15 08:24:27;;;;;;;27.80;21.35;;;10.50;72.10;;;;;;4976065;28;20180;-87
2022/03/15 08:26:53;;;;;;;25.67;20.90;;;11.00;71.00;;;;;;4976720;28;20185;-95
2022/03/15 08:29:18;;;;;;;31.80;21.07;;;11.60;69.80;;;;;;4975057;28;20592;-87
2022/03/15 08:31:44;;;;;;;32.80;21.27;;;12.40;68.90;;;;;;4980801;28;20238;-89
2022/03/15 08:34:10;;;;;;;29.80;23.23;;;13.30;68.30;;;;;;4975079;28;20190;-88
2022/03/15 08:36:36;;;;;;;27.10;20.20;;;14.30;67.40;;;;;;4978543;28;20220;-91
2022/03/15 08:39:03;;;;;;;27.20;19.90;;;15.40;65.50;;;;;;4988397;28;20300;-89
2022/03/15 08:41:29;;;;;;;28.50;20.93;;;16.40;62.50;;;;;;4993976;28;20784;-94
2022/03/15 08:43:54;;;;;;;26.40;19.30;;;17.10;61.60;;;;;;4993275;28;20441;-92
2022/03/15 08:46:20;;;;;;;25.50;19.57;;;17.80;59.90;;;;;;4994771;28;20246;-87
2022/03/15 08:48:46;;;;;;;23.93;18.33;;;18.30;58.00;;;;;;4993543;28;20315;-91
2022/03/15 08:51:12;;;;;;;23.10;17.63;;;18.70;57.20;;;;;;4996238;28;20194;-94
2022/03/15 08:53:38;;;;;;;23.73;19.20;;;19.10;57.00;;;;;;5003944;28;20199;-92
2022/03/15 08:56:04;;;;;;;30.90;19.50;;;19.50;56.70;;;;;;5009554;28;20477;-92
2022/03/15 08:58:30;;;;;;;30.27;23.23;;;20.00;56.10;;;;;;5011015;28;20192;-92
2022/03/15 09:00:56;;;;;;;33.07;23.57;;;20.40;54.80;;;;;;4999762;28;20840;-92
2022/03/15 09:03:22;;;;;;;33.50;25.27;;;20.70;54.70;;;;;;4998004;28;20246;-92
2022/03/15 09:05:48;;;;;;;21.03;18.23;;;21.10;54.10;;;;;;4994003;28;20729;-89
2022/03/15 09:08:14;;;;;;;22.53;20.20;;;21.20;52.90;;;;;;5012554;28;20560;-91
2022/03/15 09:10:42;;;;;;;22.80;18.43;;;21.10;53.10;;;;;;4993013;28;20425;-93
2022/03/15 09:13:09;;;;;;;23.60;17.20;;;20.90;52.50;;;;;;5008842;28;20196;-88
2022/03/15 09:15:35;;;;;;;18.50;14.87;;;20.90;52.60;;;;;;4992454;28;20482;-94
2022/03/15 09:18:02;;;;;;;17.23;14.43;;;20.90;52.00;;;;;;4995891;28;20493;-87
2022/03/15 09:20:28;;;;;;;16.37;13.77;;;21.00;52.30;;;;;;4997358;28;20435;-86
2022/03/15 09:22:54;;;;;;;17.60;13.80;;;20.80;52.10;;;;;;4998985;28;20427;-87
2022/03/15 09:25:20;;;;;;;16.40;13.53;;;20.80;51.50;;;;;;4998987;28;20976;-93
2022/03/15 09:27:49;;;;;;;12.27;11.07;;;20.60;51.70;;;;;;4999383;28;20449;-94
2022/03/15 09:30:16;;;;;;;17.00;14.27;;;20.50;50.50;;;;;;4998781;28;20924;-87
2022/03/15 09:32:42;;;;;;;15.10;12.40;;;20.40;51.50;;;;;;4998681;28;20434;-92
2022/03/15 09:35:08;;;;;;;14.40;11.63;;;20.40;50.80;;;;;;4998545;28;20466;-90
2022/03/15 09:37:34;;;;;;;14.87;13.30;;;20.20;51.50;;;;;;4998083;28;20425;-87
2022/03/15 09:39:59;;;;;;;15.97;14.33;;;20.20;51.80;;;;;;5001645;28;20440;-88
2022/03/15 09:42:29;;;;;;;17.27;14.27;;;20.30;51.40;;;;;;5010101;28;20229;-88
2022/03/15 09:44:57;;;;;;;13.43;11.97;;;20.20;50.60;;;;;;4997293;28;20540;-93
2022/03/15 09:47:34;;;;;;;36.67;29.27;;;20.20;50.30;;;;;;4996914;28;20426;-87
2022/03/15 09:50:03;;;;;;;12.50;11.07;;;20.40;50.40;;;;;;4997341;28;20402;-87
2022/03/15 09:52:29;;;;;;;13.20;11.80;;;20.50;49.60;;;;;;4996443;28;20443;-93
2022/03/15 09:54:56;;;;;;;12.27;10.97;;;20.40;49.70;;;;;;4996266;28;20470;-91
2022/03/15 09:57:22;;;;;;;10.83;9.73;;;20.50;50.40;;;;;;4996130;28;20439;-93
2022/03/15 09:59:52;;;;;;;10.67;9.57;;;20.60;48.50;;;;;;4997491;28;20487;-87
2022/03/15 10:02:18;;;;;;;10.63;9.53;;;20.40;48.00;;;;;;4995369;28;20484;-92
2022/03/15 10:04:44;;;;;;;12.40;11.10;;;20.20;48.80;;;;;;5016264;28;20450;-92
2022/03/15 10:07:11;;;;;;;12.37;9.20;;;19.90;49.30;;;;;;5016772;28;20449;-90
2022/03/15 10:09:37;;;;;;;12.27;10.80;;;19.60;49.80;;;;;;5001152;28;20319;-89
2022/03/15 10:12:04;;;;;;;12.43;9.20;;;19.40;49.80;;;;;;5001370;28;20883;-91
2022/03/15 10:14:41;;;;;;;14.00;10.90;;;19.20;49.30;;;;;;5001110;28;20830;-93
2022/03/15 10:17:06;;;;;;;10.93;9.83;;;18.90;50.00;;;;;;4998360;28;20484;-88
2022/03/15 10:19:32;;;;;;;10.63;9.60;;;18.80;49.80;;;;;;4999430;28;20481;-87
2022/03/15 10:21:58;;;;;;;13.20;11.53;;;18.60;50.20;;;;;;5014921;28;20231;-91
2022/03/15 10:24:29;;;;;;;11.77;9.60;;;18.60;50.70;;;;;;5007330;28;20229;-93
2022/03/15 10:26:57;;;;;;;11.93;10.80;;;18.50;50.90;;;;;;4994018;28;20441;-88
2022/03/15 10:29:27;;;;;;;12.13;10.30;;;18.40;50.70;;;;;;5010139;28;20500;-88
2022/03/15 10:31:53;;;;;;;13.10;10.13;;;18.30;50.90;;;;;;4994983;28;20460;-86
2022/03/15 10:34:21;;;;;;;13.07;10.17;;;18.20;51.00;;;;;;4999375;28;20433;-86
2022/03/15 10:36:51;;;;;;;11.20;10.07;;;18.00;51.00;;;;;;4996230;28;20463;-92
2022/03/15 10:39:19;;;;;;;12.40;11.20;;;17.90;52.30;;;;;;4983713;28;20398;-86
2022/03/15 10:41:51;;;;;;;12.40;10.10;;;17.80;51.90;;;;;;4976850;28;20430;-88
2022/03/15 10:44:27;;;;;;;20.87;17.20;;;17.70;51.90;;;;;;4977710;28;20411;-92
2022/03/15 10:47:04;;;;;;;11.27;9.50;;;17.60;51.40;;;;;;4976809;28;20441;-88
2022/03/15 10:49:31;;;;;;;11.27;8.63;;;17.50;51.70;;;;;;4978035;28;20414;-89
2022/03/15 10:51:57;;;;;;;10.50;9.40;;;17.40;51.50;;;;;;4977617;28;20530;-93
2022/03/15 10:54:24;;;;;;;10.20;9.20;;;17.30;52.10;;;;;;4977764;28;20454;-92
2022/03/15 10:56:59;;;;;;;11.07;9.27;;;17.30;51.90;;;;;;4977838;28;20454;-94
2022/03/15 10:59:26;;;;;;;10.17;9.17;;;17.30;52.30;;;;;;4978932;28;20456;-90
2022/03/15 11:01:52;;;;;;;10.27;8.57;;;17.20;51.80;;;;;;4979065;28;20438;-91
2022/03/15 11:04:19;;;;;;;12.73;10.40;;;17.10;51.90;;;;;;4978348;28;20421;-88
2022/03/15 11:06:46;;;;;;;9.67;8.67;;;17.10;51.80;;;;;;4978614;28;20438;-94
2022/03/15 11:09:27;;;;;;;13.83;10.20;;;17.10;51.70;;;;;;4978019;28;20566;-89
2022/03/15 11:12:02;;;;;;;12.70;9.77;;;17.20;52.50;;;;;;4984447;28;20426;-89
2022/03/15 11:14:57;;;;;;;17.40;13.23;;;17.20;51.90;;;;;;4975570;28;20423;-89
2022/03/15 11:17:25;;;;;;;11.43;9.40;;;17.30;51.90;;;;;;4975808;28;20812;-93
2022/03/15 11:19:54;;;;;;;11.10;9.30;;;17.30;52.10;;;;;;4976550;28;20460;-89
2022/03/15 11:22:26;;;;;;;10.30;9.30;;;17.40;51.70;;;;;;4976515;28;20517;-94
2022/03/15 11:25:12;;;;;;;15.90;11.90;;;17.40;51.60;;;;;;4975752;28;20919;-89
2022/03/15 11:27:43;;;;;;;13.90;10.83;;;17.50;51.10;;;;;;4977258;28;20947;-92
2022/03/15 11:30:12;;;;;;;11.80;10.40;;;17.50;51.60;;;;;;4975423;28;20425;-93
2022/03/15 11:32:38;;;;;;;11.63;10.30;;;17.50;51.40;;;;;;4976152;28;20422;-92
2022/03/15 11:35:09;;;;;;;9.67;8.67;;;17.60;51.70;;;;;;4975216;28;20470;-89
2022/03/15 11:37:37;;;;;;;19.83;14.27;;;17.60;51.40;;;;;;4975402;28;20438;-90
2022/03/15 11:40:08;;;;;;;10.77;9.67;;;17.70;51.40;;;;;;5011013;28;20418;-89
2022/03/15 11:42:36;;;;;;;10.43;8.10;;;17.60;51.30;;;;;;4995919;28;20440;-89
2022/03/15 11:45:27;;;;;;;11.10;8.60;;;17.60;51.50;;;;;;4995697;28;20414;-92
2022/03/15 11:48:05;;;;;;;9.70;8.20;;;17.60;51.60;;;;;;4995646;28;20577;-93
2022/03/15 11:50:49;;;;;;;9.90;8.20;;;17.70;50.80;;;;;;4996455;28;20929;-89
2022/03/15 11:53:17;;;;;;;9.70;8.60;;;17.70;50.70;;;;;;4995187;28;20463;-93
2022/03/15 11:55:52;;;;;;;9.50;8.60;;;17.70;50.60;;;;;;4996515;28;20464;-94
2022/03/15 11:58:26;;;;;;;12.40;8.80;;;17.70;50.90;;;;;;4997460;28;20983;-90
2022/03/15 12:00:53;;;;;;;11.67;9.30;;;17.60;50.90;;;;;;4996370;28;20504;-93
2022/03/15 12:03:23;;;;;;;9.27;8.33;;;17.60;50.70;;;;;;4995603;28;20453;-90
2022/03/15 12:05:53;;;;;;;12.47;9.73;;;17.50;51.40;;;;;;4997001;28;20516;-93
2022/03/15 12:08:27;;;;;;;11.13;9.20;;;17.40;51.40;;;;;;4995110;28;20505;-89
2022/03/15 12:11:02;;;;;;;10.00;8.40;;;17.30;52.00;;;;;;4996153;28;20393;-93
2022/03/15 12:13:47;;;;;;;10.13;8.13;;;17.30;52.00;;;;;;4997529;28;20455;-88
2022/03/15 12:16:25;;;;;;;10.03;8.70;;;17.40;51.90;;;;;;4997859;28;20480;-93
2022/03/15 12:19:37;;;;;;;9.83;8.23;;;17.40;51.40;;;;;;4995979;28;20452;-89
2022/03/15 12:22:09;;;;;;;10.00;8.17;;;17.40;50.80;;;;;;4997930;28;20440;-93
2022/03/15 12:24:41;;;;;;;8.53;7.47;;;17.40;51.20;;;;;;4995112;28;20445;-91
2022/03/15 12:27:19;;;;;;;11.33;9.17;;;17.50;51.70;;;;;;5009686;28;20441;-92
2022/03/15 12:29:51;;;;;;;9.90;8.50;;;17.50;51.20;;;;;;5007362;28;20401;-89
2022/03/15 12:32:18;;;;;;;11.00;8.50;;;17.50;51.40;;;;;;5007088;28;20495;-90
2022/03/15 12:34:45;;;;;;;8.83;7.93;;;17.50;51.50;;;;;;5007679;28;20555;-92
2022/03/15 12:37:12;;;;;;;9.80;8.23;;;17.40;51.30;;;;;;4995291;28;20437;-93